createdAt,value
2019-03-05T00:02:10.812Z,9.97
2019-03-05T00:07:15.764Z,6.20
2019-03-05T00:12:20.460Z,9.53
2019-03-05T00:17:25.330Z,9.03
2019-03-05T00:22:30.546Z,10.63
2019-03-05T00:27:41.690Z,7.70
2019-03-05T00:32:48.238Z,10.97
2019-03-05T00:38:10.278Z,8.20
2019-03-05T00:43:46.007Z,6.27
2019-03-05T00:49:23.758Z,7.50
2019-03-05T00:54:50.303Z,9.13
2019-03-05T01:00:06.799Z,6.07
2019-03-05T01:05:19.215Z,7.00
2019-03-05T01:10:24.719Z,5.78
2019-03-05T01:15:29.572Z,9.27
2019-03-05T01:20:34.265Z,6.23
2019-03-05T01:25:39.082Z,8.73
2019-03-05T01:31:04.371Z,7.17
2019-03-05T01:36:13.170Z,8.58
2019-03-05T01:41:17.939Z,8.53
2019-03-05T01:46:22.735Z,8.20
2019-03-05T01:51:27.855Z,5.63
2019-03-05T01:56:32.627Z,8.70
2019-03-05T02:01:37.531Z,6.67
2019-03-05T02:06:42.257Z,12.00
2019-03-05T02:11:47.124Z,7.47
2019-03-05T02:16:52.099Z,8.53
2019-03-05T02:21:56.875Z,5.37
2019-03-05T02:27:35.558Z,6.60
2019-03-05T02:33:02.288Z,5.83
2019-03-05T02:38:40.690Z,6.80
2019-03-05T02:44:35.083Z,7.50
2019-03-05T02:50:07.244Z,8.27
2019-03-05T02:55:56.127Z,6.67
2019-03-05T03:01:14.808Z,6.57
2019-03-05T03:06:22.514Z,9.20
2019-03-05T03:11:27.289Z,4.43
2019-03-05T03:16:32.071Z,4.93
2019-03-05T03:21:36.823Z,7.67
2019-03-05T03:26:41.527Z,7.43
2019-03-05T03:31:46.360Z,6.80
2019-03-05T03:36:51.264Z,6.07
2019-03-05T03:41:56.321Z,3.50
2019-03-05T03:47:01.134Z,4.57
2019-03-05T03:52:06.888Z,6.43
2019-03-05T03:57:11.810Z,6.53
2019-03-05T04:02:16.558Z,6.97
2019-03-05T04:07:21.673Z,4.50
2019-03-05T04:12:26.391Z,6.43
2019-03-05T04:17:32.065Z,3.53
2019-03-05T04:22:36.738Z,4.43
2019-03-05T04:27:41.503Z,5.23
2019-03-05T04:32:46.251Z,6.53
2019-03-05T04:37:50.954Z,5.50
2019-03-05T04:42:55.786Z,3.13
2019-03-05T04:48:00.487Z,4.83
2019-03-05T04:53:05.191Z,6.10
2019-03-05T04:58:09.947Z,5.07
2019-03-05T05:03:14.831Z,5.43
2019-03-05T05:08:19.541Z,6.57
2019-03-05T05:13:24.271Z,4.27
2019-03-05T05:18:28.989Z,6.30
2019-03-05T05:23:33.973Z,5.40
2019-03-05T05:28:38.997Z,7.60
2019-03-05T05:33:43.712Z,7.57
2019-03-05T05:38:48.427Z,7.77
2019-03-05T05:43:53.851Z,10.67
2019-03-05T05:48:58.554Z,9.37
2019-03-05T05:54:03.250Z,7.00
2019-03-05T05:59:07.987Z,7.77
2019-03-05T06:04:12.704Z,8.50
2019-03-05T06:09:17.420Z,8.03
2019-03-05T06:14:22.150Z,8.98
2019-03-05T06:19:26.958Z,9.90
2019-03-05T06:24:31.714Z,8.97
2019-03-05T06:29:36.598Z,11.60
2019-03-05T06:34:41.358Z,8.67
2019-03-05T06:39:46.156Z,12.43
2019-03-05T06:44:50.898Z,9.63
2019-03-05T06:49:55.640Z,11.13
2019-03-05T06:55:00.470Z,10.43
2019-03-05T07:00:12.812Z,7.97
2019-03-05T07:05:53.530Z,12.70
2019-03-05T07:11:14.706Z,10.50
2019-03-05T07:16:52.793Z,10.75
2019-03-05T07:22:28.408Z,10.37
2019-03-05T07:27:41.407Z,14.33
2019-03-05T07:32:46.221Z,9.43
2019-03-05T07:37:51.085Z,11.47
2019-03-05T07:42:56.152Z,10.90
2019-03-05T07:48:00.981Z,7.03
2019-03-05T07:53:05.893Z,7.13
2019-03-05T07:58:10.655Z,12.53
2019-03-05T08:03:15.583Z,7.53
2019-03-05T08:08:56.431Z,10.25
2019-03-05T08:14:30.669Z,8.37
2019-03-05T08:19:35.695Z,7.57
2019-03-05T08:24:40.373Z,12.20
2019-03-05T08:29:45.179Z,8.43
2019-03-05T08:34:51.254Z,10.47
2019-03-05T08:45:14.657Z,5.90
2019-03-05T08:50:19.405Z,6.30
2019-03-05T08:55:24.580Z,5.40
2019-03-05T09:00:29.350Z,6.80
2019-03-05T09:05:34.062Z,5.77
2019-03-05T09:10:39.879Z,6.93
2019-03-05T09:15:44.750Z,3.90
2019-03-05T09:20:50.457Z,7.77
2019-03-05T09:25:55.264Z,4.57
2019-03-05T09:30:59.960Z,7.03
2019-03-05T09:36:04.855Z,10.73
2019-03-05T09:41:11.585Z,4.67
2019-03-05T09:46:16.667Z,3.47
2019-03-05T09:51:21.426Z,3.90
2019-03-05T09:56:27.827Z,7.73
2019-03-05T10:01:32.623Z,3.83
2019-03-05T10:06:37.382Z,7.10
2019-03-05T10:11:42.247Z,4.90
2019-03-05T10:16:47.060Z,6.27
2019-03-05T10:21:52.082Z,6.53
2019-03-05T10:26:58.355Z,5.03
2019-03-05T10:32:03.365Z,7.97
2019-03-05T10:37:12.595Z,4.33
2019-03-05T10:42:14.876Z,5.30
2019-03-05T10:47:19.868Z,3.93
2019-03-05T10:52:24.722Z,5.90
2019-03-05T10:57:29.524Z,5.47
2019-03-05T11:02:34.591Z,9.37
2019-03-05T11:07:39.851Z,5.73
2019-03-05T11:12:44.803Z,6.93
2019-03-05T11:17:49.667Z,5.03
2019-03-05T11:22:54.705Z,5.23
2019-03-05T11:27:59.462Z,5.00
2019-03-05T11:33:04.851Z,6.10
2019-03-05T11:38:09.639Z,3.67
2019-03-05T11:43:16.821Z,4.00
2019-03-05T11:48:21.629Z,7.00
2019-03-05T11:53:26.325Z,6.43
2019-03-05T11:58:31.153Z,7.30
2019-03-05T12:03:36.087Z,5.03
2019-03-05T12:08:41.153Z,6.17
2019-03-05T12:13:46.048Z,6.17
2019-03-05T12:18:50.807Z,5.43
2019-03-05T12:23:55.612Z,5.90
2019-03-05T12:29:00.426Z,4.77
2019-03-05T12:34:05.291Z,4.73
2019-03-05T12:39:10.546Z,8.03
2019-03-05T12:44:15.831Z,6.53
2019-03-05T12:49:20.938Z,7.50
2019-03-05T12:54:25.708Z,3.87
2019-03-05T12:59:30.416Z,3.97
2019-03-05T13:04:35.171Z,3.77
2019-03-05T13:09:39.931Z,6.17
2019-03-05T13:14:44.671Z,5.70
2019-03-05T13:19:49.496Z,5.03
2019-03-05T13:24:54.332Z,4.43
2019-03-05T13:29:59.103Z,3.47
2019-03-05T13:35:04.179Z,6.90
2019-03-05T13:40:11.337Z,4.20
2019-03-05T13:45:16.301Z,5.85
2019-03-05T13:50:51.117Z,3.70
2019-03-05T13:56:22.495Z,6.93
2019-03-05T14:01:28.592Z,5.50
2019-03-05T14:06:54.321Z,4.13
2019-03-05T14:11:59.056Z,5.00
2019-03-05T14:17:22.991Z,7.70
2019-03-05T14:22:27.840Z,3.50
2019-03-05T14:27:32.600Z,4.50
2019-03-05T14:32:37.390Z,8.50
2019-03-05T14:37:42.227Z,6.30
2019-03-05T14:42:47.183Z,6.93
2019-03-05T14:47:53.298Z,3.33
2019-03-05T14:52:58.230Z,3.57
2019-03-05T14:58:03.429Z,4.40
2019-03-05T15:03:08.234Z,2.73
2019-03-05T15:08:13.165Z,3.72
2019-03-05T15:13:20.015Z,4.60
2019-03-05T15:18:24.514Z,3.50
2019-03-05T15:23:29.300Z,6.53
2019-03-05T15:28:34.028Z,5.57
2019-03-05T15:33:38.908Z,5.97
2019-03-05T15:38:44.065Z,4.63
2019-03-05T15:43:48.873Z,7.40
2019-03-05T15:48:53.675Z,6.57
2019-03-05T15:53:58.478Z,4.07
2019-03-05T15:59:03.281Z,4.90
2019-03-05T16:04:08.038Z,4.93
2019-03-05T16:09:16.827Z,3.77
2019-03-05T16:14:22.010Z,4.87
2019-03-05T16:19:26.712Z,2.63
2019-03-05T16:24:33.907Z,3.90
2019-03-05T16:29:38.019Z,4.03
2019-03-05T16:34:52.279Z,3.47
2019-03-05T16:40:19.013Z,5.87
2019-03-05T16:45:32.898Z,3.37
2019-03-05T16:50:49.220Z,3.50
2019-03-05T16:56:22.628Z,5.87
2019-03-05T17:01:45.642Z,2.27
2019-03-05T17:07:12.441Z,3.53
2019-03-05T17:12:17.328Z,2.53
2019-03-05T17:17:22.438Z,3.40
2019-03-05T17:22:27.253Z,4.60
2019-03-05T17:27:32.007Z,2.67
2019-03-05T17:32:37.141Z,3.70
2019-03-05T17:37:41.924Z,4.40
2019-03-05T17:42:46.741Z,3.80
2019-03-05T17:47:51.608Z,3.37
2019-03-05T17:52:56.329Z,6.53
2019-03-05T17:58:01.109Z,4.13
2019-03-05T18:03:06.930Z,3.60
2019-03-05T18:08:11.716Z,4.97
2019-03-05T18:13:16.452Z,7.20
2019-03-05T18:18:21.246Z,5.57
2019-03-05T18:23:26.112Z,5.13
2019-03-05T18:28:30.916Z,3.87
2019-03-05T18:33:35.635Z,5.27
2019-03-05T18:38:40.498Z,4.40
2019-03-05T18:43:45.258Z,5.37
2019-03-05T18:48:50.064Z,6.17
2019-03-05T18:53:54.887Z,4.23
2019-03-05T18:58:59.690Z,7.30
2019-03-05T19:04:04.629Z,6.33
2019-03-05T19:09:09.499Z,7.00
2019-03-05T19:14:14.584Z,5.57
2019-03-05T19:19:19.356Z,8.60
2019-03-05T19:24:24.128Z,6.30
2019-03-05T19:29:28.822Z,7.50
2019-03-05T19:34:33.555Z,7.70
2019-03-05T19:39:39.321Z,6.40
2019-03-05T19:44:44.089Z,7.90
2019-03-05T19:49:48.991Z,7.17
2019-03-05T19:54:53.723Z,7.23
2019-03-05T19:59:59.211Z,9.40
2019-03-05T20:05:04.394Z,7.03
2019-03-05T20:10:11.736Z,6.93
2019-03-05T20:15:18.555Z,9.30
2019-03-05T20:20:23.527Z,8.27
2019-03-05T20:25:28.614Z,6.43
2019-03-05T20:30:33.853Z,7.43
2019-03-05T20:35:38.683Z,8.20
2019-03-05T20:40:43.559Z,8.73
2019-03-05T20:45:49.001Z,6.43
2019-03-05T20:50:54.055Z,9.20
2019-03-05T20:55:58.956Z,9.17
2019-03-05T21:01:05.349Z,9.57
2019-03-05T21:06:10.229Z,8.30
2019-03-05T21:11:15.378Z,8.80
2019-03-05T21:16:20.152Z,9.13
2019-03-05T21:21:25.046Z,8.60
2019-03-05T21:26:29.849Z,7.30
2019-03-05T21:31:34.621Z,7.97
2019-03-05T21:36:39.486Z,10.77
2019-03-05T21:41:45.275Z,9.17
2019-03-05T21:46:50.043Z,6.80
2019-03-05T21:51:54.738Z,8.50
2019-03-05T21:57:00.388Z,8.33
2019-03-05T22:02:05.686Z,12.97
2019-03-05T22:07:10.844Z,10.50
2019-03-05T22:12:16.241Z,11.40
2019-03-05T22:17:21.023Z,10.50
2019-03-05T22:22:25.769Z,11.83
2019-03-05T22:27:30.897Z,10.20
2019-03-05T22:32:35.805Z,11.77
2019-03-05T22:37:40.593Z,13.43
2019-03-05T22:42:46.289Z,11.30
2019-03-05T22:47:51.130Z,9.27
2019-03-05T22:52:56.281Z,12.23
2019-03-05T22:58:01.073Z,12.67
2019-03-05T23:03:06.389Z,11.63
2019-03-05T23:08:11.309Z,12.60
2019-03-05T23:13:18.004Z,11.23
2019-03-05T23:18:23.741Z,12.97
2019-03-05T23:23:28.640Z,13.03
2019-03-05T23:28:33.561Z,10.90
2019-03-05T23:33:39.253Z,11.13
2019-03-05T23:38:44.116Z,12.30
2019-03-05T23:43:48.879Z,11.10
2019-03-05T23:48:53.637Z,14.10
2019-03-05T23:53:58.366Z,11.63
2019-03-05T23:59:03.192Z,15.27
